sensor_id;sensor_type;location;lat;lon;timestamp;temperature;humidity
52113;DHT22;38109;49.488;31.988;2023-05-07T00:02:06;11.40;48.60
52113;DHT22;38109;49.488;31.988;2023-05-07T00:04:32;11.40;48.60
52113;DHT22;38109;49.488;31.988;2023-05-07T00:07:02;11.40;48.60
52113;DHT22;38109;49.488;31.988;2023-05-07T00:09:28;11.40;48.60
52113;DHT22;38109;49.488;31.988;2023-05-07T00:11:54;11.40;48.60
52113;DHT22;38109;49.488;31.988;2023-05-07T00:14:19;11.40;48.60
52113;DHT22;38109;49.488;31.988;2023-05-07T00:16:46;11.30;48.60
52113;DHT22;38109;49.488;31.988;2023-05-07T00:19:12;11.30;48.60
52113;DHT22;38109;49.488;31.988;2023-05-07T00:21:37;11.30;48.80
52113;DHT22;38109;49.488;31.988;2023-05-07T00:24:03;11.30;48.90
52113;DHT22;38109;49.488;31.988;2023-05-07T00:26:29;11.30;49.00
52113;DHT22;38109;49.488;31.988;2023-05-07T00:28:55;11.20;49.00
52113;DHT22;38109;49.488;31.988;2023-05-07T00:31:20;11.20;49.00
52113;DHT22;38109;49.488;31.988;2023-05-07T00:33:46;11.20;49.00
52113;DHT22;38109;49.488;31.988;2023-05-07T00:36:12;11.20;49.00
52113;DHT22;38109;49.488;31.988;2023-05-07T00:38:37;11.20;49.00
52113;DHT22;38109;49.488;31.988;2023-05-07T00:41:03;11.20;49.20
52113;DHT22;38109;49.488;31.988;2023-05-07T00:43:29;11.20;49.10
52113;DHT22;38109;49.488;31.988;2023-05-07T00:45:55;11.10;49.10
52113;DHT22;38109;49.488;31.988;2023-05-07T00:48:21;11.10;49.20
52113;DHT22;38109;49.488;31.988;2023-05-07T00:50:47;11.10;49.30
52113;DHT22;38109;49.488;31.988;2023-05-07T00:53:13;11.10;49.30
52113;DHT22;38109;49.488;31.988;2023-05-07T00:55:39;11.10;49.40
52113;DHT22;38109;49.488;31.988;2023-05-07T00:58:06;11.10;49.60
52113;DHT22;38109;49.488;31.988;2023-05-07T01:00:31;11.10;50.30
52113;DHT22;38109;49.488;31.988;2023-05-07T01:02:57;11.10;49.70
52113;DHT22;38109;49.488;31.988;2023-05-07T01:09:05;11.10;49.60
52113;DHT22;38109;49.488;31.988;2023-05-07T01:14:53;11.00;49.70
52113;DHT22;38109;49.488;31.988;2023-05-07T01:20:49;11.00;49.80
52113;DHT22;38109;49.488;31.988;2023-05-07T01:26:52;11.00;50.00
52113;DHT22;38109;49.488;31.988;2023-05-07T01:32:57;10.90;50.10
52113;DHT22;38109;49.488;31.988;2023-05-07T01:39:19;10.90;50.20
52113;DHT22;38109;49.488;31.988;2023-05-07T01:41:45;10.90;50.90
52113;DHT22;38109;49.488;31.988;2023-05-07T01:44:12;10.90;51.00
52113;DHT22;38109;49.488;31.988;2023-05-07T01:46:39;10.90;50.30
52113;DHT22;38109;49.488;31.988;2023-05-07T01:49:04;10.90;50.30
52113;DHT22;38109;49.488;31.988;2023-05-07T01:51:30;10.90;50.30
52113;DHT22;38109;49.488;31.988;2023-05-07T01:53:56;10.80;50.50
52113;DHT22;38109;49.488;31.988;2023-05-07T01:56:24;10.80;50.60
52113;DHT22;38109;49.488;31.988;2023-05-07T01:58:49;10.80;50.60
52113;DHT22;38109;49.488;31.988;2023-05-07T02:01:16;10.80;50.60
52113;DHT22;38109;49.488;31.988;2023-05-07T02:03:42;10.80;50.70
52113;DHT22;38109;49.488;31.988;2023-05-07T02:06:07;10.80;50.70
52113;DHT22;38109;49.488;31.988;2023-05-07T02:08:33;10.80;50.70
52113;DHT22;38109;49.488;31.988;2023-05-07T02:10:59;10.80;50.70
52113;DHT22;38109;49.488;31.988;2023-05-07T02:13:26;10.90;50.70
52113;DHT22;38109;49.488;31.988;2023-05-07T02:15:52;10.80;50.70
52113;DHT22;38109;49.488;31.988;2023-05-07T02:18:18;10.90;50.80
52113;DHT22;38109;49.488;31.988;2023-05-07T02:20:44;10.90;50.80
52113;DHT22;38109;49.488;31.988;2023-05-07T02:23:10;10.80;50.80
52113;DHT22;38109;49.488;31.988;2023-05-07T02:25:35;10.90;50.90
52113;DHT22;38109;49.488;31.988;2023-05-07T02:28:01;10.90;51.10
52113;DHT22;38109;49.488;31.988;2023-05-07T02:30:27;10.80;51.10
52113;DHT22;38109;49.488;31.988;2023-05-07T02:32:52;10.80;51.20
52113;DHT22;38109;49.488;31.988;2023-05-07T02:35:18;10.80;51.20
52113;DHT22;38109;49.488;31.988;2023-05-07T02:37:43;10.80;51.30
52113;DHT22;38109;49.488;31.988;2023-05-07T02:40:10;10.80;51.30
52113;DHT22;38109;49.488;31.988;2023-05-07T02:42:36;10.80;51.40
52113;DHT22;38109;49.488;31.988;2023-05-07T02:45:02;10.80;51.30
52113;DHT22;38109;49.488;31.988;2023-05-07T02:47:27;10.80;51.20
52113;DHT22;38109;49.488;31.988;2023-05-07T02:49:54;10.90;51.30
52113;DHT22;38109;49.488;31.988;2023-05-07T02:52:20;10.80;51.40
52113;DHT22;38109;49.488;31.988;2023-05-07T02:54:46;10.80;51.40
52113;DHT22;38109;49.488;31.988;2023-05-07T02:57:12;10.80;51.40
52113;DHT22;38109;49.488;31.988;2023-05-07T02:59:37;10.80;51.50
52113;DHT22;38109;49.488;31.988;2023-05-07T03:02:03;10.80;51.50
52113;DHT22;38109;49.488;31.988;2023-05-07T03:04:29;10.80;51.60
52113;DHT22;38109;49.488;31.988;2023-05-07T03:06:54;10.80;51.70
52113;DHT22;38109;49.488;31.988;2023-05-07T03:09:20;10.80;51.90
52113;DHT22;38109;49.488;31.988;2023-05-07T03:11:46;10.80;52.00
52113;DHT22;38109;49.488;31.988;2023-05-07T03:14:12;10.70;52.10
52113;DHT22;38109;49.488;31.988;2023-05-07T03:16:38;10.70;52.00
52113;DHT22;38109;49.488;31.988;2023-05-07T03:19:03;10.70;52.00
52113;DHT22;38109;49.488;31.988;2023-05-07T03:21:30;10.70;52.10
52113;DHT22;38109;49.488;31.988;2023-05-07T03:23:56;10.70;52.10
52113;DHT22;38109;49.488;31.988;2023-05-07T03:26:22;10.70;52.20
52113;DHT22;38109;49.488;31.988;2023-05-07T03:28:47;10.70;52.20
52113;DHT22;38109;49.488;31.988;2023-05-07T03:31:13;10.70;52.20
52113;DHT22;38109;49.488;31.988;2023-05-07T03:33:55;10.70;52.20
52113;DHT22;38109;49.488;31.988;2023-05-07T03:36:21;10.60;52.20
52113;DHT22;38109;49.488;31.988;2023-05-07T03:38:48;10.70;52.20
52113;DHT22;38109;49.488;31.988;2023-05-07T03:41:14;10.70;52.10
52113;DHT22;38109;49.488;31.988;2023-05-07T03:43:39;10.60;52.10
52113;DHT22;38109;49.488;31.988;2023-05-07T03:46:05;10.70;52.20
52113;DHT22;38109;49.488;31.988;2023-05-07T03:48:31;10.70;52.10
52113;DHT22;38109;49.488;31.988;2023-05-07T03:50:58;10.70;52.20
52113;DHT22;38109;49.488;31.988;2023-05-07T03:53:23;10.70;52.30
52113;DHT22;38109;49.488;31.988;2023-05-07T03:55:49;10.70;52.30
52113;DHT22;38109;49.488;31.988;2023-05-07T03:58:15;10.80;52.50
52113;DHT22;38109;49.488;31.988;2023-05-07T04:00:41;10.80;53.00
52113;DHT22;38109;49.488;31.988;2023-05-07T04:03:07;10.80;52.30
52113;DHT22;38109;49.488;31.988;2023-05-07T04:05:33;10.80;52.20
52113;DHT22;38109;49.488;31.988;2023-05-07T04:07:59;10.90;52.20
52113;DHT22;38109;49.488;31.988;2023-05-07T04:10:25;10.90;52.10
52113;DHT22;38109;49.488;31.988;2023-05-07T04:12:50;10.90;52.20
52113;DHT22;38109;49.488;31.988;2023-05-07T04:15:16;10.90;52.20
52113;DHT22;38109;49.488;31.988;2023-05-07T04:17:42;11.00;52.20
52113;DHT22;38109;49.488;31.988;2023-05-07T04:20:15;11.00;52.20
52113;DHT22;38109;49.488;31.988;2023-05-07T04:22:41;11.00;52.10
52113;DHT22;38109;49.488;31.988;2023-05-07T04:25:08;11.10;52.20
52113;DHT22;38109;49.488;31.988;2023-05-07T04:27:37;11.10;52.20
52113;DHT22;38109;49.488;31.988;2023-05-07T04:30:03;11.10;52.30
52113;DHT22;38109;49.488;31.988;2023-05-07T04:32:29;11.10;52.80
52113;DHT22;38109;49.488;31.988;2023-05-07T04:34:56;11.10;52.10
52113;DHT22;38109;49.488;31.988;2023-05-07T04:37:21;11.20;52.10
52113;DHT22;38109;49.488;31.988;2023-05-07T04:39:47;11.20;52.00
52113;DHT22;38109;49.488;31.988;2023-05-07T04:42:17;11.20;52.00
52113;DHT22;38109;49.488;31.988;2023-05-07T04:44:44;11.20;52.00
52113;DHT22;38109;49.488;31.988;2023-05-07T04:47:10;11.30;51.90
52113;DHT22;38109;49.488;31.988;2023-05-07T04:49:36;11.30;51.70
52113;DHT22;38109;49.488;31.988;2023-05-07T04:52:02;11.30;51.60
52113;DHT22;38109;49.488;31.988;2023-05-07T04:54:28;11.30;51.50
52113;DHT22;38109;49.488;31.988;2023-05-07T04:56:55;11.40;51.50
52113;DHT22;38109;49.488;31.988;2023-05-07T04:59:20;11.40;51.30
52113;DHT22;38109;49.488;31.988;2023-05-07T05:01:46;11.50;51.20
52113;DHT22;38109;49.488;31.988;2023-05-07T05:04:12;11.50;51.00
52113;DHT22;38109;49.488;31.988;2023-05-07T05:06:50;11.50;50.90
52113;DHT22;38109;49.488;31.988;2023-05-07T05:09:16;11.60;50.60
52113;DHT22;38109;49.488;31.988;2023-05-07T05:11:42;11.60;50.50
52113;DHT22;38109;49.488;31.988;2023-05-07T05:14:07;11.60;50.50
52113;DHT22;38109;49.488;31.988;2023-05-07T05:16:33;11.60;50.60
52113;DHT22;38109;49.488;31.988;2023-05-07T05:19:08;11.70;50.30
52113;DHT22;38109;49.488;31.988;2023-05-07T05:24:59;11.80;50.10
52113;DHT22;38109;49.488;31.988;2023-05-07T05:27:26;11.80;50.00
52113;DHT22;38109;49.488;31.988;2023-05-07T05:29:51;11.80;49.90
52113;DHT22;38109;49.488;31.988;2023-05-07T05:32:17;11.90;50.00
52113;DHT22;38109;49.488;31.988;2023-05-07T05:34:43;11.90;49.80
52113;DHT22;38109;49.488;31.988;2023-05-07T05:37:08;11.90;49.60
52113;DHT22;38109;49.488;31.988;2023-05-07T05:39:34;11.90;49.40
52113;DHT22;38109;49.488;31.988;2023-05-07T05:41:59;11.90;49.10
52113;DHT22;38109;49.488;31.988;2023-05-07T05:44:25;11.90;49.00
52113;DHT22;38109;49.488;31.988;2023-05-07T05:46:51;12.00;49.00
52113;DHT22;38109;49.488;31.988;2023-05-07T05:49:16;12.00;48.80
52113;DHT22;38109;49.488;31.988;2023-05-07T05:51:43;12.00;48.70
52113;DHT22;38109;49.488;31.988;2023-05-07T05:54:08;12.10;48.40
52113;DHT22;38109;49.488;31.988;2023-05-07T06:03:22;12.10;47.40
52113;DHT22;38109;49.488;31.988;2023-05-07T06:09:26;12.10;46.70
52113;DHT22;38109;49.488;31.988;2023-05-07T06:18:40;12.30;46.50
52113;DHT22;38109;49.488;31.988;2023-05-07T06:24:34;12.30;46.00
52113;DHT22;38109;49.488;31.988;2023-05-07T06:30:26;12.20;45.90
52113;DHT22;38109;49.488;31.988;2023-05-07T06:32:52;12.20;46.00
52113;DHT22;38109;49.488;31.988;2023-05-07T06:35:18;12.20;45.80
52113;DHT22;38109;49.488;31.988;2023-05-07T06:37:44;12.20;45.60
52113;DHT22;38109;49.488;31.988;2023-05-07T06:40:10;12.30;45.80
52113;DHT22;38109;49.488;31.988;2023-05-07T06:42:36;12.30;45.60
52113;DHT22;38109;49.488;31.988;2023-05-07T06:45:03;12.30;45.80
52113;DHT22;38109;49.488;31.988;2023-05-07T06:47:29;12.30;45.80
52113;DHT22;38109;49.488;31.988;2023-05-07T06:49:55;12.40;45.60
52113;DHT22;38109;49.488;31.988;2023-05-07T06:52:20;12.40;45.40
52113;DHT22;38109;49.488;31.988;2023-05-07T06:54:46;12.40;45.10
52113;DHT22;38109;49.488;31.988;2023-05-07T06:57:12;12.40;44.90
52113;DHT22;38109;49.488;31.988;2023-05-07T06:59:38;12.50;44.90
52113;DHT22;38109;49.488;31.988;2023-05-07T07:02:03;12.50;44.70
52113;DHT22;38109;49.488;31.988;2023-05-07T07:04:29;12.50;44.50
52113;DHT22;38109;49.488;31.988;2023-05-07T07:06:55;12.50;44.10
52113;DHT22;38109;49.488;31.988;2023-05-07T07:09:22;12.50;44.00
52113;DHT22;38109;49.488;31.988;2023-05-07T07:11:47;12.50;43.80
52113;DHT22;38109;49.488;31.988;2023-05-07T07:14:13;12.50;43.80
52113;DHT22;38109;49.488;31.988;2023-05-07T07:16:39;12.50;43.80
52113;DHT22;38109;49.488;31.988;2023-05-07T07:19:05;12.50;43.60
52113;DHT22;38109;49.488;31.988;2023-05-07T07:21:31;12.50;43.60
52113;DHT22;38109;49.488;31.988;2023-05-07T07:23:57;12.50;44.20
52113;DHT22;38109;49.488;31.988;2023-05-07T07:26:23;12.50;43.60
52113;DHT22;38109;49.488;31.988;2023-05-07T07:28:48;12.50;43.40
52113;DHT22;38109;49.488;31.988;2023-05-07T07:31:14;12.50;43.40
52113;DHT22;38109;49.488;31.988;2023-05-07T07:33:40;12.50;43.30
52113;DHT22;38109;49.488;31.988;2023-05-07T07:36:07;12.50;43.30
52113;DHT22;38109;49.488;31.988;2023-05-07T07:38:33;12.50;43.40
52113;DHT22;38109;49.488;31.988;2023-05-07T07:40:59;12.60;43.50
52113;DHT22;38109;49.488;31.988;2023-05-07T07:43:25;12.60;43.60
52113;DHT22;38109;49.488;31.988;2023-05-07T07:45:50;12.70;43.20
52113;DHT22;38109;49.488;31.988;2023-05-07T07:48:16;12.80;43.10
52113;DHT22;38109;49.488;31.988;2023-05-07T07:50:42;12.80;43.00
52113;DHT22;38109;49.488;31.988;2023-05-07T07:53:08;12.90;43.10
52113;DHT22;38109;49.488;31.988;2023-05-07T07:55:38;12.90;42.90
52113;DHT22;38109;49.488;31.988;2023-05-07T07:58:04;13.00;42.50
52113;DHT22;38109;49.488;31.988;2023-05-07T08:00:29;13.00;42.30
52113;DHT22;38109;49.488;31.988;2023-05-07T08:02:55;13.00;42.20
52113;DHT22;38109;49.488;31.988;2023-05-07T08:05:20;13.00;42.20
52113;DHT22;38109;49.488;31.988;2023-05-07T08:07:47;13.00;42.00
52113;DHT22;38109;49.488;31.988;2023-05-07T08:10:17;13.00;42.20
52113;DHT22;38109;49.488;31.988;2023-05-07T08:12:50;13.10;42.20
52113;DHT22;38109;49.488;31.988;2023-05-07T08:15:16;13.10;42.10
52113;DHT22;38109;49.488;31.988;2023-05-07T08:17:41;13.10;41.90
52113;DHT22;38109;49.488;31.988;2023-05-07T08:20:07;13.10;41.90
52113;DHT22;38109;49.488;31.988;2023-05-07T08:22:36;13.10;41.90
52113;DHT22;38109;49.488;31.988;2023-05-07T08:25:03;13.10;41.90
52113;DHT22;38109;49.488;31.988;2023-05-07T08:27:28;13.10;42.00
52113;DHT22;38109;49.488;31.988;2023-05-07T08:29:54;13.10;41.80
52113;DHT22;38109;49.488;31.988;2023-05-07T08:32:20;13.20;41.80
52113;DHT22;38109;49.488;31.988;2023-05-07T08:34:47;13.20;41.60
52113;DHT22;38109;49.488;31.988;2023-05-07T08:37:12;13.20;41.50
52113;DHT22;38109;49.488;31.988;2023-05-07T08:39:38;13.20;41.60
52113;DHT22;38109;49.488;31.988;2023-05-07T08:42:04;13.30;41.60
52113;DHT22;38109;49.488;31.988;2023-05-07T08:44:33;13.30;42.20
52113;DHT22;38109;49.488;31.988;2023-05-07T08:47:01;13.30;41.10
52113;DHT22;38109;49.488;31.988;2023-05-07T09:06:43;13.50;40.70
52113;DHT22;38109;49.488;31.988;2023-05-07T09:09:08;13.50;40.80
52113;DHT22;38109;49.488;31.988;2023-05-07T09:15:19;13.50;41.00
52113;DHT22;38109;49.488;31.988;2023-05-07T09:28:12;13.70;40.70
52113;DHT22;38109;49.488;31.988;2023-05-07T09:34:22;13.70;40.50
52113;DHT22;38109;49.488;31.988;2023-05-07T09:40:20;13.80;40.50
52113;DHT22;38109;49.488;31.988;2023-05-07T09:42:47;13.90;40.60
52113;DHT22;38109;49.488;31.988;2023-05-07T09:45:13;13.90;40.70
52113;DHT22;38109;49.488;31.988;2023-05-07T09:47:39;14.00;40.60
52113;DHT22;38109;49.488;31.988;2023-05-07T09:50:19;14.00;40.50
52113;DHT22;38109;49.488;31.988;2023-05-07T09:52:46;14.10;40.50
52113;DHT22;38109;49.488;31.988;2023-05-07T09:55:13;14.10;40.60
52113;DHT22;38109;49.488;31.988;2023-05-07T10:04:32;14.40;40.50
52113;DHT22;38109;49.488;31.988;2023-05-07T10:06:59;14.40;40.50
52113;DHT22;38109;49.488;31.988;2023-05-07T10:09:26;14.50;40.40
52113;DHT22;38109;49.488;31.988;2023-05-07T10:11:52;14.50;40.20
52113;DHT22;38109;49.488;31.988;2023-05-07T10:14:20;14.60;40.10
52113;DHT22;38109;49.488;31.988;2023-05-07T10:51:20;15.00;39.10
52113;DHT22;38109;49.488;31.988;2023-05-07T10:53:46;15.10;39.30
52113;DHT22;38109;49.488;31.988;2023-05-07T10:59:41;15.20;39.30
52113;DHT22;38109;49.488;31.988;2023-05-07T11:02:07;15.20;39.20
52113;DHT22;38109;49.488;31.988;2023-05-07T11:04:35;15.30;39.20
52113;DHT22;38109;49.488;31.988;2023-05-07T11:15:37;15.40;38.60
52113;DHT22;38109;49.488;31.988;2023-05-07T11:24:53;15.50;38.20
52113;DHT22;38109;49.488;31.988;2023-05-07T11:27:23;15.60;38.60
52113;DHT22;38109;49.488;31.988;2023-05-07T11:29:50;15.60;38.50
52113;DHT22;38109;49.488;31.988;2023-05-07T11:32:21;15.70;38.60
52113;DHT22;38109;49.488;31.988;2023-05-07T11:34:47;15.70;38.70
52113;DHT22;38109;49.488;31.988;2023-05-07T11:37:17;15.80;38.60
52113;DHT22;38109;49.488;31.988;2023-05-07T11:39:44;15.80;38.40
52113;DHT22;38109;49.488;31.988;2023-05-07T11:42:32;15.90;38.40
52113;DHT22;38109;49.488;31.988;2023-05-07T11:46:04;16.00;38.40
52113;DHT22;38109;49.488;31.988;2023-05-07T11:48:30;16.10;38.30
52113;DHT22;38109;49.488;31.988;2023-05-07T11:53:35;16.10;37.90
52113;DHT22;38109;49.488;31.988;2023-05-07T13:02:38;17.10;37.80
52113;DHT22;38109;49.488;31.988;2023-05-07T13:05:05;17.20;37.60
52113;DHT22;38109;49.488;31.988;2023-05-07T13:10:52;17.30;37.80
52113;DHT22;38109;49.488;31.988;2023-05-07T13:13:19;17.30;37.70
52113;DHT22;38109;49.488;31.988;2023-05-07T13:15:45;17.40;38.10
52113;DHT22;38109;49.488;31.988;2023-05-07T13:18:11;17.40;37.40
52113;DHT22;38109;49.488;31.988;2023-05-07T13:20:37;17.40;37.40
52113;DHT22;38109;49.488;31.988;2023-05-07T13:23:03;17.40;37.20
52113;DHT22;38109;49.488;31.988;2023-05-07T13:25:30;17.30;37.00
52113;DHT22;38109;49.488;31.988;2023-05-07T13:27:57;17.30;37.00
52113;DHT22;38109;49.488;31.988;2023-05-07T13:30:23;17.30;37.10
52113;DHT22;38109;49.488;31.988;2023-05-07T13:32:48;17.30;37.20
52113;DHT22;38109;49.488;31.988;2023-05-07T13:35:16;17.30;37.10
52113;DHT22;38109;49.488;31.988;2023-05-07T13:41:14;17.40;37.10
52113;DHT22;38109;49.488;31.988;2023-05-07T13:43:40;17.40;37.00
52113;DHT22;38109;49.488;31.988;2023-05-07T13:46:05;17.40;36.90
52113;DHT22;38109;49.488;31.988;2023-05-07T13:48:31;17.40;37.00
52113;DHT22;38109;49.488;31.988;2023-05-07T13:50:56;17.40;37.00
52113;DHT22;38109;49.488;31.988;2023-05-07T13:53:22;17.40;36.90
52113;DHT22;38109;49.488;31.988;2023-05-07T13:55:48;17.40;37.00
52113;DHT22;38109;49.488;31.988;2023-05-07T13:58:14;17.40;36.80
52113;DHT22;38109;49.488;31.988;2023-05-07T14:00:40;17.40;36.60
52113;DHT22;38109;49.488;31.988;2023-05-07T14:03:05;17.40;36.50
52113;DHT22;38109;49.488;31.988;2023-05-07T14:05:31;17.30;36.40
52113;DHT22;38109;49.488;31.988;2023-05-07T14:07:57;17.30;36.40
52113;DHT22;38109;49.488;31.988;2023-05-07T14:10:24;17.30;36.60
52113;DHT22;38109;49.488;31.988;2023-05-07T14:12:50;17.30;36.60
52113;DHT22;38109;49.488;31.988;2023-05-07T14:15:16;17.30;36.60
52113;DHT22;38109;49.488;31.988;2023-05-07T14:17:42;17.30;36.60
52113;DHT22;38109;49.488;31.988;2023-05-07T14:20:08;17.30;36.60
52113;DHT22;38109;49.488;31.988;2023-05-07T14:22:35;17.30;37.10
52113;DHT22;38109;49.488;31.988;2023-05-07T14:25:00;17.30;36.40
52113;DHT22;38109;49.488;31.988;2023-05-07T14:27:26;17.30;36.30
52113;DHT22;38109;49.488;31.988;2023-05-07T14:29:52;17.30;36.30
52113;DHT22;38109;49.488;31.988;2023-05-07T14:32:18;17.30;36.30
52113;DHT22;38109;49.488;31.988;2023-05-07T14:34:44;17.30;36.40
52113;DHT22;38109;49.488;31.988;2023-05-07T14:37:10;17.30;36.50
52113;DHT22;38109;49.488;31.988;2023-05-07T14:39:36;17.30;36.60
52113;DHT22;38109;49.488;31.988;2023-05-07T14:42:01;17.30;36.60
52113;DHT22;38109;49.488;31.988;2023-05-07T14:44:27;17.20;36.60
52113;DHT22;38109;49.488;31.988;2023-05-07T14:46:53;17.20;36.80
52113;DHT22;38109;49.488;31.988;2023-05-07T14:49:19;17.20;37.00
52113;DHT22;38109;49.488;31.988;2023-05-07T14:51:45;17.10;37.00
52113;DHT22;38109;49.488;31.988;2023-05-07T14:54:11;17.10;37.00
52113;DHT22;38109;49.488;31.988;2023-05-07T14:56:37;17.10;36.90
52113;DHT22;38109;49.488;31.988;2023-05-07T14:59:03;17.00;36.70
52113;DHT22;38109;49.488;31.988;2023-05-07T15:01:29;17.00;36.60
52113;DHT22;38109;49.488;31.988;2023-05-07T15:03:55;16.90;36.50
52113;DHT22;38109;49.488;31.988;2023-05-07T15:06:21;16.90;37.10
52113;DHT22;38109;49.488;31.988;2023-05-07T15:08:47;16.90;36.60
52113;DHT22;38109;49.488;31.988;2023-05-07T15:11:14;16.80;36.50
52113;DHT22;38109;49.488;31.988;2023-05-07T15:13:41;16.80;36.60
52113;DHT22;38109;49.488;31.988;2023-05-07T15:16:28;16.80;36.50
52113;DHT22;38109;49.488;31.988;2023-05-07T15:18:54;16.70;36.30
52113;DHT22;38109;49.488;31.988;2023-05-07T15:21:24;16.70;36.50
52113;DHT22;38109;49.488;31.988;2023-05-07T15:23:49;16.70;36.60
52113;DHT22;38109;49.488;31.988;2023-05-07T15:26:15;16.60;36.40
52113;DHT22;38109;49.488;31.988;2023-05-07T15:28:41;16.60;36.40
52113;DHT22;38109;49.488;31.988;2023-05-07T15:31:06;16.60;36.40
52113;DHT22;38109;49.488;31.988;2023-05-07T15:33:32;16.50;36.40
52113;DHT22;38109;49.488;31.988;2023-05-07T15:35:58;16.50;36.50
52113;DHT22;38109;49.488;31.988;2023-05-07T15:38:28;16.40;36.50
52113;DHT22;38109;49.488;31.988;2023-05-07T15:40:54;16.40;36.50
52113;DHT22;38109;49.488;31.988;2023-05-07T15:43:20;16.40;36.50
52113;DHT22;38109;49.488;31.988;2023-05-07T15:45:46;16.30;36.30
52113;DHT22;38109;49.488;31.988;2023-05-07T15:48:11;16.30;36.30
52113;DHT22;38109;49.488;31.988;2023-05-07T15:50:37;16.30;36.50
52113;DHT22;38109;49.488;31.988;2023-05-07T15:53:05;16.30;36.60
52113;DHT22;38109;49.488;31.988;2023-05-07T15:55:31;16.30;36.70
52113;DHT22;38109;49.488;31.988;2023-05-07T15:57:57;16.20;36.80
52113;DHT22;38109;49.488;31.988;2023-05-07T16:00:25;16.20;37.00
52113;DHT22;38109;49.488;31.988;2023-05-07T16:02:52;16.20;37.10
52113;DHT22;38109;49.488;31.988;2023-05-07T16:05:18;16.10;37.10
52113;DHT22;38109;49.488;31.988;2023-05-07T16:07:44;16.10;37.10
52113;DHT22;38109;49.488;31.988;2023-05-07T16:10:10;16.10;37.10
52113;DHT22;38109;49.488;31.988;2023-05-07T16:12:36;16.10;37.10
52113;DHT22;38109;49.488;31.988;2023-05-07T16:15:02;16.00;37.00
52113;DHT22;38109;49.488;31.988;2023-05-07T16:17:28;16.10;36.90
52113;DHT22;38109;49.488;31.988;2023-05-07T16:19:53;16.00;36.80
52113;DHT22;38109;49.488;31.988;2023-05-07T16:22:19;16.00;36.70
52113;DHT22;38109;49.488;31.988;2023-05-07T16:24:45;16.00;36.70
52113;DHT22;38109;49.488;31.988;2023-05-07T16:27:10;16.00;36.80
52113;DHT22;38109;49.488;31.988;2023-05-07T16:29:36;15.90;36.70
52113;DHT22;38109;49.488;31.988;2023-05-07T16:32:02;15.90;36.70
52113;DHT22;38109;49.488;31.988;2023-05-07T16:34:27;15.90;36.70
52113;DHT22;38109;49.488;31.988;2023-05-07T16:36:53;15.90;36.80
52113;DHT22;38109;49.488;31.988;2023-05-07T16:39:19;15.90;36.90
52113;DHT22;38109;49.488;31.988;2023-05-07T16:41:44;15.90;36.90
52113;DHT22;38109;49.488;31.988;2023-05-07T16:44:13;15.90;37.50
52113;DHT22;38109;49.488;31.988;2023-05-07T16:46:39;15.90;37.00
52113;DHT22;38109;49.488;31.988;2023-05-07T16:49:04;15.80;36.90
52113;DHT22;38109;49.488;31.988;2023-05-07T16:51:32;15.80;37.00
52113;DHT22;38109;49.488;31.988;2023-05-07T16:53:58;15.80;37.00
52113;DHT22;38109;49.488;31.988;2023-05-07T16:56:23;15.80;37.20
52113;DHT22;38109;49.488;31.988;2023-05-07T16:58:49;15.80;37.20
52113;DHT22;38109;49.488;31.988;2023-05-07T17:01:15;15.80;37.30
52113;DHT22;38109;49.488;31.988;2023-05-07T17:03:43;15.80;37.40
52113;DHT22;38109;49.488;31.988;2023-05-07T17:06:09;15.70;37.50
52113;DHT22;38109;49.488;31.988;2023-05-07T17:08:39;15.70;37.90
52113;DHT22;38109;49.488;31.988;2023-05-07T17:11:05;15.70;38.20
52113;DHT22;38109;49.488;31.988;2023-05-07T17:13:31;15.70;38.60
52113;DHT22;38109;49.488;31.988;2023-05-07T17:15:56;15.70;38.80
52113;DHT22;38109;49.488;31.988;2023-05-07T17:18:22;15.60;38.90
52113;DHT22;38109;49.488;31.988;2023-05-07T17:20:47;15.60;39.10
52113;DHT22;38109;49.488;31.988;2023-05-07T17:23:13;15.60;39.40
52113;DHT22;38109;49.488;31.988;2023-05-07T17:25:39;15.60;39.80
52113;DHT22;38109;49.488;31.988;2023-05-07T17:28:13;15.50;39.90
52113;DHT22;38109;49.488;31.988;2023-05-07T17:30:38;15.50;40.10
52113;DHT22;38109;49.488;31.988;2023-05-07T17:33:05;15.50;40.20
52113;DHT22;38109;49.488;31.988;2023-05-07T17:35:34;15.50;40.20
52113;DHT22;38109;49.488;31.988;2023-05-07T17:38:00;15.50;40.20
52113;DHT22;38109;49.488;31.988;2023-05-07T17:40:26;15.50;40.20
52113;DHT22;38109;49.488;31.988;2023-05-07T17:42:54;15.40;40.30
52113;DHT22;38109;49.488;31.988;2023-05-07T17:45:19;15.40;40.50
52113;DHT22;38109;49.488;31.988;2023-05-07T17:47:45;15.40;40.50
52113;DHT22;38109;49.488;31.988;2023-05-07T17:50:12;15.40;40.50
52113;DHT22;38109;49.488;31.988;2023-05-07T17:52:39;15.40;40.50
52113;DHT22;38109;49.488;31.988;2023-05-07T17:55:06;15.30;40.50
52113;DHT22;38109;49.488;31.988;2023-05-07T17:57:32;15.30;40.60
52113;DHT22;38109;49.488;31.988;2023-05-07T18:00:00;15.30;40.70
52113;DHT22;38109;49.488;31.988;2023-05-07T18:02:26;15.30;40.90
52113;DHT22;38109;49.488;31.988;2023-05-07T18:04:52;15.30;40.80
52113;DHT22;38109;49.488;31.988;2023-05-07T18:07:18;15.30;40.70
52113;DHT22;38109;49.488;31.988;2023-05-07T18:09:44;15.20;40.80
52113;DHT22;38109;49.488;31.988;2023-05-07T18:12:10;15.20;40.90
52113;DHT22;38109;49.488;31.988;2023-05-07T18:14:36;15.20;41.10
52113;DHT22;38109;49.488;31.988;2023-05-07T18:17:01;15.20;41.20
52113;DHT22;38109;49.488;31.988;2023-05-07T18:19:27;15.20;41.30
52113;DHT22;38109;49.488;31.988;2023-05-07T18:21:53;15.10;41.50
52113;DHT22;38109;49.488;31.988;2023-05-07T18:24:20;15.10;41.60
52113;DHT22;38109;49.488;31.988;2023-05-07T18:26:45;15.10;41.60
52113;DHT22;38109;49.488;31.988;2023-05-07T18:29:12;15.10;41.70
52113;DHT22;38109;49.488;31.988;2023-05-07T18:31:38;15.10;41.80
52113;DHT22;38109;49.488;31.988;2023-05-07T18:34:03;15.00;41.80
52113;DHT22;38109;49.488;31.988;2023-05-07T18:36:30;15.00;42.20
52113;DHT22;38109;49.488;31.988;2023-05-07T18:38:56;15.00;41.20
52113;DHT22;38109;49.488;31.988;2023-05-07T18:41:21;14.90;41.70
52113;DHT22;38109;49.488;31.988;2023-05-07T18:43:47;15.00;41.30
52113;DHT22;38109;49.488;31.988;2023-05-07T18:46:13;14.90;41.40
52113;DHT22;38109;49.488;31.988;2023-05-07T18:48:38;14.90;41.60
52113;DHT22;38109;49.488;31.988;2023-05-07T18:51:04;14.80;41.60
52113;DHT22;38109;49.488;31.988;2023-05-07T18:53:30;14.80;41.60
52113;DHT22;38109;49.488;31.988;2023-05-07T18:55:55;14.80;41.50